createdAt,value
2022-09-21T00:01:10.484Z,101764.16
2022-09-21T00:03:38.262Z,101765.75
2022-09-21T00:06:25.297Z,101763.81
2022-09-21T00:08:52.918Z,101766.41
2022-09-21T00:11:23.853Z,101757.78
2022-09-21T00:14:04.349Z,101755.91
2022-09-21T00:16:32.063Z,101761.59
2022-09-21T00:18:59.152Z,101764.88
2022-09-21T00:21:25.877Z,101758.16
2022-09-21T00:23:52.516Z,101765.00
2022-09-21T00:26:22.074Z,101769.16
2022-09-21T00:28:55.888Z,101772.78
2022-09-21T00:31:22.838Z,101775.19
2022-09-21T00:33:51.014Z,101758.97
2022-09-21T00:36:19.715Z,101767.44
2022-09-21T00:38:53.612Z,101765.03
2022-09-21T00:41:20.803Z,101768.78
2022-09-21T00:44:08.494Z,101778.06
2022-09-21T00:46:38.959Z,101775.84
2022-09-21T00:49:05.761Z,101779.34
2022-09-21T00:51:32.517Z,101778.81
2022-09-21T00:54:05.145Z,101786.38
2022-09-21T00:56:31.735Z,101777.00
2022-09-21T00:58:58.549Z,101777.41
2022-09-21T01:01:25.267Z,101776.88
2022-09-21T01:03:55.472Z,101776.50
2022-09-21T01:06:22.616Z,101776.66
2022-09-21T01:08:55.817Z,101784.59
2022-09-21T01:11:51.527Z,101788.63
2022-09-21T01:14:34.610Z,101780.16
2022-09-21T01:17:36.264Z,101789.84
2022-09-21T01:20:35.171Z,101783.25
2022-09-21T01:23:39.483Z,101782.03
2022-09-21T01:26:08.704Z,101781.34
2022-09-21T01:29:11.736Z,101792.22
2022-09-21T01:31:44.683Z,101790.72
2022-09-21T01:34:18.540Z,101783.94
2022-09-21T01:36:48.938Z,101791.13
2022-09-21T01:39:19.016Z,101792.50
2022-09-21T01:41:47.714Z,101792.34
2022-09-21T01:44:22.084Z,101788.41
2022-09-21T01:46:49.024Z,101792.94
2022-09-21T01:49:23.819Z,101785.19
2022-09-21T01:51:57.253Z,101787.81
2022-09-21T01:54:49.211Z,101776.53
2022-09-21T01:57:26.042Z,101776.06
2022-09-21T01:59:58.392Z,101782.09
2022-09-21T02:02:29.298Z,101794.94
2022-09-21T02:04:56.163Z,101789.88
2022-09-21T02:07:22.943Z,101786.44
2022-09-21T02:09:49.709Z,101784.59
2022-09-21T02:12:19.179Z,101787.69
2022-09-21T02:14:46.514Z,101789.25
2022-09-21T02:17:41.193Z,101777.94
2022-09-21T02:20:19.803Z,101780.41
2022-09-21T02:23:34.136Z,101781.38
2022-09-21T02:26:09.559Z,101789.97
2022-09-21T02:28:51.142Z,101789.28
2022-09-21T02:31:28.192Z,101791.41
2022-09-21T02:34:10.176Z,101782.44
2022-09-21T02:36:50.452Z,101783.88
2022-09-21T02:39:36.735Z,101791.84
2022-09-21T02:42:28.313Z,101801.03
2022-09-21T02:45:32.836Z,101781.78
2022-09-21T02:48:10.973Z,101790.69
2022-09-21T02:50:59.525Z,101786.28
2022-09-21T02:53:30.645Z,101783.34
2022-09-21T02:56:03.815Z,101776.31
2022-09-21T02:58:32.065Z,101784.94
2022-09-21T03:00:59.386Z,101778.75
2022-09-21T03:03:26.210Z,101780.78
2022-09-21T03:05:55.171Z,101775.09
2022-09-21T03:08:22.328Z,101786.28
2022-09-21T03:10:49.999Z,101777.66
2022-09-21T03:13:17.718Z,101778.31
2022-09-21T03:15:45.482Z,101776.53
2022-09-21T03:18:12.633Z,101779.00
2022-09-21T03:20:45.206Z,101784.19
2022-09-21T03:23:12.799Z,101781.44
2022-09-21T03:25:39.528Z,101792.28
2022-09-21T03:28:06.213Z,101800.06
2022-09-21T03:30:32.711Z,101792.13
2022-09-21T03:32:59.382Z,101796.06
2022-09-21T03:35:26.610Z,101788.47
2022-09-21T03:37:55.267Z,101794.69
2022-09-21T03:40:23.561Z,101793.75
2022-09-21T03:42:50.409Z,101802.31
2022-09-21T03:45:16.890Z,101796.81
2022-09-21T03:47:43.556Z,101793.88
2022-09-21T03:50:10.785Z,101793.88
2022-09-21T03:52:38.443Z,101790.63
2022-09-21T03:55:07.069Z,101789.84
2022-09-21T03:57:34.344Z,101798.97
2022-09-21T04:00:03.691Z,101795.88
2022-09-21T04:02:31.917Z,101791.69
2022-09-21T04:04:58.719Z,101798.56
2022-09-21T04:07:26.192Z,101798.41
2022-09-21T04:09:53.508Z,101790.53
2022-09-21T04:12:23.361Z,101794.16
2022-09-21T04:14:49.986Z,101790.69
2022-09-21T04:17:17.009Z,101793.78
2022-09-21T04:19:45.400Z,101800.66
2022-09-21T04:22:15.333Z,101789.47
2022-09-21T04:24:41.923Z,101799.06
2022-09-21T04:27:09.320Z,101794.47
2022-09-21T04:29:36.428Z,101794.78
2022-09-21T04:32:03.531Z,101793.38
2022-09-21T04:34:31.156Z,101793.16
2022-09-21T04:36:58.556Z,101797.47
2022-09-21T04:39:26.130Z,101785.09
2022-09-21T04:41:52.744Z,101789.09
2022-09-21T04:44:19.381Z,101795.72
2022-09-21T04:46:46.513Z,101793.56
2022-09-21T04:49:13.113Z,101797.66
2022-09-21T04:51:39.600Z,101796.84
2022-09-21T04:54:06.608Z,101806.44
2022-09-21T04:56:33.828Z,101804.81
2022-09-21T04:59:00.478Z,101804.88
2022-09-21T05:01:27.781Z,101812.06
2022-09-21T05:03:54.614Z,101807.13
2022-09-21T05:06:21.181Z,101815.75
2022-09-21T05:09:06.463Z,101814.22
2022-09-21T05:11:33.447Z,101816.88
2022-09-21T05:13:59.925Z,101819.78
2022-09-21T05:16:26.552Z,101817.50
2022-09-21T05:18:55.104Z,101817.50
2022-09-21T05:21:22.170Z,101827.84
2022-09-21T05:23:48.802Z,101818.34
2022-09-21T05:26:15.576Z,101813.34
2022-09-21T05:28:42.488Z,101822.75
2022-09-21T05:31:19.320Z,101824.88
2022-09-21T05:33:54.445Z,101829.94
2022-09-21T05:36:53.526Z,101831.41
2022-09-21T05:39:20.639Z,101829.19
2022-09-21T05:41:47.468Z,101840.50
2022-09-21T05:44:14.986Z,101838.19
2022-09-21T05:46:52.709Z,101839.66
2022-09-21T05:49:51.939Z,101836.75
2022-09-21T05:52:30.103Z,101834.91
2022-09-21T05:55:15.029Z,101839.38
2022-09-21T05:58:01.641Z,101845.22
2022-09-21T06:00:41.941Z,101843.88
2022-09-21T06:03:21.699Z,101842.59
2022-09-21T06:05:48.283Z,101852.88
2022-09-21T06:08:14.800Z,101854.72
2022-09-21T06:10:41.488Z,101854.25
2022-09-21T06:13:08.200Z,101852.03
2022-09-21T06:15:38.547Z,101856.59
2022-09-21T06:18:06.126Z,101857.75
2022-09-21T06:20:33.091Z,101860.88
2022-09-21T06:23:08.980Z,101862.94
2022-09-21T06:25:35.751Z,101866.47
2022-09-21T06:28:04.770Z,101868.53
2022-09-21T06:30:34.368Z,101873.56
2022-09-21T06:33:02.210Z,101869.97
2022-09-21T06:35:29.732Z,101875.22
2022-09-21T06:38:00.658Z,101865.97
2022-09-21T06:40:29.115Z,101870.78
2022-09-21T06:43:00.831Z,101871.53
2022-09-21T06:45:28.984Z,101865.38
2022-09-21T06:47:56.026Z,101870.38
2022-09-21T06:50:23.023Z,101875.03
2022-09-21T06:52:49.810Z,101877.66
2022-09-21T06:55:16.729Z,101884.97
2022-09-21T06:57:43.631Z,101886.19
2022-09-21T07:00:12.437Z,101878.56
2022-09-21T07:02:42.862Z,101877.22
2022-09-21T07:05:09.662Z,101878.59
2022-09-21T07:07:36.378Z,101876.59
2022-09-21T07:10:05.838Z,101881.47
2022-09-21T07:12:34.542Z,101871.31
2022-09-21T07:15:02.903Z,101887.31
2022-09-21T07:17:37.958Z,101879.06
2022-09-21T07:20:06.526Z,101882.69
2022-09-21T07:22:33.518Z,101885.97
2022-09-21T07:25:00.250Z,101886.31
2022-09-21T07:27:29.540Z,101883.91
2022-09-21T07:29:59.208Z,101883.16
2022-09-21T07:32:26.035Z,101883.16
2022-09-21T07:34:56.307Z,101886.22
2022-09-21T07:37:24.569Z,101881.22
2022-09-21T07:39:52.761Z,101872.41
2022-09-21T07:42:21.412Z,101870.47
2022-09-21T07:44:48.541Z,101881.69
2022-09-21T07:47:15.784Z,101887.84
2022-09-21T07:49:42.658Z,101881.81
2022-09-21T07:52:11.171Z,101877.66
2022-09-21T07:54:38.365Z,101874.34
2022-09-21T07:57:23.749Z,101883.75
2022-09-21T07:59:50.615Z,101872.81
2022-09-21T08:02:17.203Z,101881.06
2022-09-21T08:04:43.976Z,101879.47
2022-09-21T08:07:11.188Z,101891.31
2022-09-21T08:09:37.773Z,101886.13
2022-09-21T08:12:04.250Z,101883.50
2022-09-21T08:14:30.815Z,101888.19
2022-09-21T08:16:57.310Z,101888.44
2022-09-21T08:19:26.539Z,101878.34
2022-09-21T08:21:57.661Z,101883.97
2022-09-21T08:24:26.739Z,101885.97
2022-09-21T08:26:55.668Z,101892.47
2022-09-21T08:29:23.173Z,101892.94
2022-09-21T08:31:49.751Z,101895.53
2022-09-21T08:34:16.587Z,101898.03
2022-09-21T08:36:43.820Z,101896.44
2022-09-21T08:39:10.478Z,101898.47
2022-09-21T08:41:58.247Z,101889.28
2022-09-21T08:44:48.245Z,101884.63
2022-09-21T08:47:43.600Z,101885.34
2022-09-21T08:50:22.471Z,101877.41
2022-09-21T08:52:57.300Z,101886.50
2022-09-21T08:55:24.735Z,101886.88
2022-09-21T08:57:51.291Z,101881.34
2022-09-21T09:00:19.693Z,101875.88
2022-09-21T09:02:55.331Z,101875.69
2022-09-21T09:05:35.052Z,101878.25
2022-09-21T09:08:23.168Z,101885.63
2022-09-21T09:11:02.356Z,101883.41
2022-09-21T09:13:47.416Z,101874.94
2022-09-21T09:16:22.506Z,101879.59
2022-09-21T09:18:55.210Z,101883.72
2022-09-21T09:21:32.634Z,101883.72
2022-09-21T09:24:11.739Z,101895.00
2022-09-21T09:27:09.230Z,101875.75
2022-09-21T09:29:54.108Z,101884.63
2022-09-21T09:32:30.060Z,101881.25
2022-09-21T09:35:25.962Z,101868.53
2022-09-21T09:37:57.340Z,101873.66
2022-09-21T09:40:43.279Z,101877.75
2022-09-21T09:43:27.239Z,101873.47
2022-09-21T09:46:45.279Z,101867.03
2022-09-21T09:49:44.045Z,101877.59
2022-09-21T09:52:14.137Z,101870.94
2022-09-21T09:54:40.942Z,101870.06
2022-09-21T09:57:09.223Z,101874.97
2022-09-21T09:59:39.693Z,101870.19
2022-09-21T10:02:18.298Z,101861.78
2022-09-21T10:05:09.282Z,101857.91
2022-09-21T10:07:38.889Z,101868.97
2022-09-21T10:10:34.909Z,101860.66
2022-09-21T10:13:14.185Z,101869.91
2022-09-21T10:15:49.814Z,101859.59
2022-09-21T10:18:23.099Z,101859.59
2022-09-21T10:21:15.652Z,101860.38
2022-09-21T10:23:51.686Z,101854.47
2022-09-21T10:26:19.743Z,101866.63
2022-09-21T10:29:00.325Z,101857.34
2022-09-21T10:31:29.955Z,101864.22
2022-09-21T10:34:02.565Z,101853.59
2022-09-21T10:36:35.246Z,101855.72
2022-09-21T10:39:29.411Z,101862.16
2022-09-21T10:42:14.308Z,101855.16
2022-09-21T10:44:43.542Z,101859.78
2022-09-21T10:47:36.353Z,101857.66
2022-09-21T10:50:19.777Z,101857.88
2022-09-21T10:52:47.424Z,101852.25
2022-09-21T10:55:21.584Z,101851.19
2022-09-21T10:57:50.945Z,101853.13
2022-09-21T11:00:35.357Z,101845.22
2022-09-21T11:03:32.033Z,101846.91
2022-09-21T11:06:09.604Z,101849.91
2022-09-21T11:08:49.158Z,101857.19
2022-09-21T11:11:37.342Z,101843.06
2022-09-21T11:14:41.531Z,101842.84
2022-09-21T11:17:16.815Z,101838.78
2022-09-21T11:19:56.031Z,101843.03
2022-09-21T11:22:38.468Z,101838.94
2022-09-21T11:25:23.352Z,101843.88
2022-09-21T11:27:56.889Z,101845.81
2022-09-21T11:30:24.408Z,101838.13
2022-09-21T11:33:04.937Z,101834.91
2022-09-21T11:35:47.288Z,101842.19
2022-09-21T11:38:43.135Z,101841.75
2022-09-21T11:41:22.240Z,101846.47
2022-09-21T11:44:09.831Z,101838.09
2022-09-21T11:46:56.642Z,101839.16
2022-09-21T11:49:49.208Z,101848.16
2022-09-21T11:53:12.229Z,101839.56
2022-09-21T11:55:50.052Z,101846.81
2022-09-21T11:58:26.072Z,101832.66
2022-09-21T12:01:03.548Z,101831.81
2022-09-21T12:03:49.054Z,101827.69
2022-09-21T12:06:30.693Z,101830.94
2022-09-21T12:09:15.600Z,101820.63
2022-09-21T12:11:49.264Z,101824.13
2022-09-21T12:14:25.213Z,101823.47
2022-09-21T12:17:05.718Z,101811.84
2022-09-21T12:19:45.421Z,101814.38
2022-09-21T12:22:33.469Z,101806.91
2022-09-21T12:25:16.940Z,101800.75
2022-09-21T12:27:51.948Z,101801.88
2022-09-21T12:30:23.934Z,101798.47
2022-09-21T12:32:59.633Z,101797.84
2022-09-21T12:35:48.726Z,101786.50
2022-09-21T12:38:18.541Z,101791.22
2022-09-21T12:40:58.109Z,101792.91
2022-09-21T12:43:41.417Z,101796.59
2022-09-21T12:46:10.940Z,101786.31
2022-09-21T12:48:39.501Z,101788.47
2022-09-21T12:51:24.859Z,101783.97
2022-09-21T12:53:59.041Z,101781.63
2022-09-21T12:56:40.461Z,101781.19
2022-09-21T12:59:50.605Z,101773.03
2022-09-21T13:02:24.591Z,101780.53
2022-09-21T13:05:19.316Z,101768.97
2022-09-21T13:08:16.033Z,101772.84
2022-09-21T13:10:45.548Z,101771.13
2022-09-21T13:13:30.517Z,101774.97
2022-09-21T13:15:59.229Z,101777.53
2022-09-21T13:18:36.243Z,101776.25
2022-09-21T13:21:26.465Z,101771.13
2022-09-21T13:24:01.332Z,101777.53
2022-09-21T13:26:41.533Z,101776.84
2022-09-21T13:29:17.046Z,101768.44
2022-09-21T13:32:03.707Z,101758.31
2022-09-21T13:34:35.158Z,101761.47
2022-09-21T13:37:14.400Z,101763.59
2022-09-21T13:40:02.462Z,101757.72
2022-09-21T13:42:32.094Z,101757.31
2022-09-21T13:45:18.835Z,101756.66
2022-09-21T13:47:49.177Z,101758.66
2022-09-21T13:50:41.631Z,101759.94
2022-09-21T13:53:22.668Z,101755.25
2022-09-21T13:55:55.537Z,101755.47
2022-09-21T13:58:36.400Z,101744.59
2022-09-21T14:01:29.247Z,101737.94
2022-09-21T14:04:02.647Z,101730.03
2022-09-21T14:06:35.840Z,101729.41
2022-09-21T14:09:06.478Z,101723.19
2022-09-21T14:11:40.447Z,101728.31
2022-09-21T14:14:18.260Z,101723.38
2022-09-21T14:16:45.509Z,101719.75
2022-09-21T14:19:33.086Z,101718.47
2022-09-21T14:22:04.209Z,101721.66
2022-09-21T14:24:38.600Z,101713.72
2022-09-21T14:27:48.336Z,101712.84
2022-09-21T14:30:24.546Z,101723.16
2022-09-21T14:33:00.786Z,101721.66
2022-09-21T14:35:37.642Z,101715.44
2022-09-21T14:38:22.664Z,101709.44
2022-09-21T14:40:51.807Z,101713.72
2022-09-21T14:43:28.223Z,101708.78
2022-09-21T14:46:25.474Z,101711.75
2022-09-21T14:49:04.356Z,101703.22
2022-09-21T14:51:39.837Z,101697.84
2022-09-21T14:54:17.428Z,101697.22
2022-09-21T14:57:02.585Z,101702.16
2022-09-21T14:59:50.427Z,101696.78
2022-09-21T15:02:24.073Z,101703.03
2022-09-21T15:05:02.943Z,101699.53
2022-09-21T15:08:05.871Z,101691.63
2022-09-21T15:10:57.590Z,101692.75
2022-09-21T15:13:49.452Z,101679.00
2022-09-21T15:16:35.547Z,101677.72
2022-09-21T15:19:11.756Z,101686.03
2022-09-21T15:21:43.470Z,101674.75
2022-09-21T15:24:18.822Z,101683.09
2022-09-21T15:26:47.137Z,101681.97
2022-09-21T15:29:24.501Z,101676.41
2022-09-21T15:31:51.701Z,101673.88
2022-09-21T15:34:18.638Z,101668.72
2022-09-21T15:36:48.617Z,101672.81
2022-09-21T15:39:27.592Z,101675.59
2022-09-21T15:42:09.384Z,101681.53
2022-09-21T15:44:38.384Z,101672.09
2022-09-21T15:47:12.578Z,101663.59
2022-09-21T15:49:40.209Z,101672.09
2022-09-21T15:52:27.621Z,101672.09
2022-09-21T15:54:58.821Z,101671.72
2022-09-21T15:57:30.902Z,101664.88
2022-09-21T15:59:57.719Z,101666.41
2022-09-21T16:02:27.951Z,101663.59
2022-09-21T16:04:54.953Z,101671.69
2022-09-21T16:07:35.857Z,101666.53
2022-09-21T16:10:24.028Z,101667.47
2022-09-21T16:12:50.971Z,101663.56
2022-09-21T16:15:23.789Z,101668.19
2022-09-21T16:18:01.248Z,101666.34
2022-09-21T16:20:38.686Z,101668.66
2022-09-21T16:23:13.704Z,101670.81
2022-09-21T16:25:40.804Z,101660.84
2022-09-21T16:28:28.782Z,101659.41
2022-09-21T16:30:56.662Z,101667.53
2022-09-21T16:33:34.260Z,101662.00
2022-09-21T16:36:02.543Z,101667.34
2022-09-21T16:38:30.175Z,101669.69
2022-09-21T16:40:56.873Z,101672.44
2022-09-21T16:43:24.191Z,101678.22
2022-09-21T16:45:51.179Z,101676.72
2022-09-21T16:48:18.762Z,101676.97
2022-09-21T16:50:46.303Z,101683.38
2022-09-21T16:53:13.054Z,101680.78
2022-09-21T16:55:42.862Z,101681.03
2022-09-21T16:58:09.925Z,101682.53
2022-09-21T17:00:40.358Z,101689.81
2022-09-21T17:03:07.014Z,101679.34
2022-09-21T17:05:33.504Z,101677.16
2022-09-21T17:08:00.202Z,101673.75
2022-09-21T17:10:30.420Z,101678.19
2022-09-21T17:12:58.055Z,101680.97
2022-09-21T17:15:25.452Z,101667.47
2022-09-21T17:17:52.175Z,101673.88
2022-09-21T17:20:26.568Z,101669.16
2022-09-21T17:22:53.195Z,101673.41
2022-09-21T17:25:19.655Z,101677.00
2022-09-21T17:27:46.215Z,101677.22
2022-09-21T17:30:15.536Z,101676.53
2022-09-21T17:32:47.589Z,101674.16
2022-09-21T17:35:20.260Z,101676.50
2022-09-21T17:37:46.994Z,101683.13
2022-09-21T17:40:14.516Z,101678.81
2022-09-21T17:42:48.439Z,101677.50
2022-09-21T17:45:28.308Z,101688.38
2022-09-21T17:47:55.207Z,101681.69
2022-09-21T17:50:27.819Z,101687.03
2022-09-21T17:53:14.114Z,101687.66
2022-09-21T17:55:54.345Z,101690.59
2022-09-21T17:58:37.666Z,101693.75
2022-09-21T18:01:04.262Z,101684.75
2022-09-21T18:03:36.351Z,101681.75
2022-09-21T18:06:03.481Z,101682.16
2022-09-21T18:08:33.802Z,101692.84
2022-09-21T18:11:00.290Z,101692.13
2022-09-21T18:13:32.924Z,101691.88
2022-09-21T18:16:23.038Z,101698.03
2022-09-21T18:18:53.123Z,101698.84
2022-09-21T18:21:22.400Z,101700.28
2022-09-21T18:24:13.503Z,101703.06
2022-09-21T18:26:41.170Z,101700.28
2022-09-21T18:29:38.818Z,101699.66
2022-09-21T18:32:39.539Z,101696.22
2022-09-21T18:35:11.911Z,101690.44
2022-09-21T18:37:57.750Z,101701.47
2022-09-21T18:40:55.420Z,101709.84
2022-09-21T18:44:10.421Z,101708.50
2022-09-21T18:47:01.711Z,101710.50
2022-09-21T18:49:50.009Z,101708.78
2022-09-21T18:52:28.705Z,101708.72
2022-09-21T18:54:55.511Z,101705.75
2022-09-21T18:57:23.395Z,101703.13
2022-09-21T18:59:50.328Z,101709.97
2022-09-21T19:02:20.254Z,101710.28
2022-09-21T19:04:48.497Z,101704.25
2022-09-21T19:07:15.014Z,101705.56
2022-09-21T19:09:51.943Z,101704.94
2022-09-21T19:12:47.108Z,101698.34
2022-09-21T19:15:48.619Z,101703.31
2022-09-21T19:18:26.635Z,101704.25
2022-09-21T19:21:54.538Z,101712.31
2022-09-21T19:24:36.311Z,101708.50
2022-09-21T19:27:33.448Z,101706.19
2022-09-21T19:30:05.723Z,101706.78
2022-09-21T19:32:46.024Z,101700.97
2022-09-21T19:35:18.949Z,101702.13
2022-09-21T19:37:47.120Z,101701.09
2022-09-21T19:40:19.205Z,101707.03
2022-09-21T19:42:50.340Z,101699.09
2022-09-21T19:45:26.705Z,101696.06
2022-09-21T19:47:58.774Z,101698.19
2022-09-21T19:50:41.053Z,101691.56
2022-09-21T19:53:29.897Z,101690.66
2022-09-21T19:56:16.588Z,101690.09
2022-09-21T19:59:02.379Z,101694.00
2022-09-21T20:01:31.185Z,101700.41
2022-09-21T20:03:58.117Z,101698.41
2022-09-21T20:06:38.835Z,101697.72
2022-09-21T20:09:42.055Z,101701.63
2022-09-21T20:12:28.089Z,101692.41
2022-09-21T20:15:15.680Z,101697.94
2022-09-21T20:17:51.472Z,101699.47
2022-09-21T20:20:28.960Z,101684.47
2022-09-21T20:22:56.121Z,101696.41
2022-09-21T20:25:37.489Z,101697.47
2022-09-21T20:28:04.575Z,101702.06
2022-09-21T20:30:34.518Z,101693.69
2022-09-21T20:33:06.670Z,101699.56
2022-09-21T20:35:34.619Z,101696.75
2022-09-21T20:38:02.852Z,101695.75
2022-09-21T20:40:31.772Z,101698.56
2022-09-21T20:43:00.819Z,101697.03
2022-09-21T20:45:27.533Z,101699.91
2022-09-21T20:47:55.257Z,101693.13
2022-09-21T20:50:23.524Z,101693.78
2022-09-21T20:52:50.064Z,101687.69
2022-09-21T20:55:20.073Z,101692.56
2022-09-21T20:57:46.647Z,101699.97
2022-09-21T21:00:14.934Z,101689.13
2022-09-21T21:02:42.123Z,101693.59
2022-09-21T21:05:10.282Z,101690.91
2022-09-21T21:07:37.322Z,101688.88
2022-09-21T21:10:04.417Z,101692.59
2022-09-21T21:12:31.092Z,101681.53
2022-09-21T21:14:58.999Z,101684.03
2022-09-21T21:17:26.096Z,101689.19
2022-09-21T21:19:52.585Z,101688.50
2022-09-21T21:22:19.171Z,101686.13
2022-09-21T21:24:45.748Z,101697.28
2022-09-21T21:27:21.174Z,101686.22
2022-09-21T21:29:50.187Z,101692.31
2022-09-21T21:32:18.493Z,101678.66
2022-09-21T21:34:45.440Z,101697.72
2022-09-21T21:37:13.390Z,101689.25
2022-09-21T21:39:40.122Z,101694.59
2022-09-21T21:42:06.827Z,101694.69
2022-09-21T21:44:33.418Z,101699.50
2022-09-21T21:47:15.136Z,101699.03
2022-09-21T21:49:46.723Z,101691.41
2022-09-21T21:52:13.282Z,101694.94
2022-09-21T21:54:39.928Z,101687.59
2022-09-21T21:57:06.462Z,101683.13
2022-09-21T21:59:33.090Z,101687.97
2022-09-21T22:01:59.684Z,101683.66
2022-09-21T22:04:27.941Z,101685.88
2022-09-21T22:06:54.691Z,101683.06
2022-09-21T22:09:22.072Z,101683.06
2022-09-21T22:11:48.945Z,101682.03
2022-09-21T22:14:15.591Z,101686.69
2022-09-21T22:16:42.154Z,101676.03
2022-09-21T22:19:09.564Z,101675.34
2022-09-21T22:21:42.144Z,101676.78
2022-09-21T22:24:09.658Z,101678.47
2022-09-21T22:26:40.431Z,101676.44
2022-09-21T22:29:09.426Z,101682.16
2022-09-21T22:31:39.801Z,101676.44
2022-09-21T22:34:07.620Z,101673.69
2022-09-21T22:36:35.961Z,101677.38
2022-09-21T22:39:03.980Z,101675.59
2022-09-21T22:41:33.502Z,101664.78
2022-09-21T22:44:00.213Z,101676.22
2022-09-21T22:46:28.935Z,101669.09
2022-09-21T22:48:55.559Z,101673.28
2022-09-21T22:51:22.793Z,101667.38
2022-09-21T22:53:50.693Z,101670.31
2022-09-21T22:56:20.140Z,101676.22
2022-09-21T22:58:49.493Z,101667.91
2022-09-21T23:01:19.302Z,101660.00
2022-09-21T23:03:48.246Z,101666.94
2022-09-21T23:06:17.694Z,101662.00
2022-09-21T23:08:49.066Z,101661.28
2022-09-21T23:11:19.504Z,101663.41
2022-09-21T23:13:46.595Z,101667.03
2022-09-21T23:16:15.309Z,101667.03
2022-09-21T23:18:43.444Z,101663.56
2022-09-21T23:21:16.470Z,101653.84
2022-09-21T23:23:44.126Z,101664.28
2022-09-21T23:26:18.951Z,101660.81
2022-09-21T23:28:50.888Z,101657.50
2022-09-21T23:31:18.079Z,101662.00
2022-09-21T23:33:47.439Z,101658.19
2022-09-21T23:36:16.393Z,101662.50
2022-09-21T23:38:43.589Z,101660.78
2022-09-21T23:41:18.070Z,101660.25
2022-09-21T23:43:45.509Z,101655.13
2022-09-21T23:46:14.592Z,101653.59
2022-09-21T23:48:42.367Z,101657.97
2022-09-21T23:51:09.543Z,101664.84
2022-09-21T23:53:37.225Z,101655.16
2022-09-21T23:56:04.921Z,101654.75
2022-09-21T23:58:32.169Z,101654.69
